Time;durP1;ratioP1;P1;durP2;ratioP2;P2;SDS_P1;SDS_P2;PMS_P1;PMS_P2;Temp;Humidity;BMP_temperature;BMP_pressure;BME280_temperature;BME280_humidity;BME280_pressure;Samples;Min_cycle;Max_cycle;Signal;HPM_P1;HPM_P2
2024/02/25 05:07:32;;;;;;;0.40;0.40;;;1.70;99.90;;;;;;5013958;23;20783;-65
2024/02/25 05:09:58;;;;;;;0.40;0.40;;;1.70;99.90;;;;;;4974532;28;20282;-66
2024/02/25 05:12:24;;;;;;;0.40;0.40;;;1.60;99.90;;;;;;4974597;28;20688;-65
2024/02/25 05:14:50;;;;;;;0.40;0.40;;;1.60;99.90;;;;;;4974263;28;20169;-65
2024/02/25 05:17:16;;;;;;;0.40;0.40;;;1.50;99.90;;;;;;4974506;28;20188;-65
2024/02/25 05:19:41;;;;;;;0.40;0.40;;;1.60;99.90;;;;;;4974570;28;20179;-66
2024/02/25 05:22:07;;;;;;;0.43;0.43;;;1.60;99.90;;;;;;4974511;28;20176;-65
2024/02/25 05:24:35;;;;;;;0.40;0.40;;;1.60;99.90;;;;;;4974148;28;20677;-66
2024/02/25 05:27:01;;;;;;;0.40;0.40;;;1.60;99.90;;;;;;4957015;28;20227;-65
2024/02/25 05:29:26;;;;;;;0.40;0.40;;;1.60;99.90;;;;;;4974210;28;20250;-66
2024/02/25 05:31:52;;;;;;;0.40;0.40;;;1.60;99.90;;;;;;4974234;28;20227;-65
2024/02/25 05:34:17;;;;;;;0.40;0.40;;;1.60;99.90;;;;;;4977032;28;20168;-65
2024/02/25 05:36:43;;;;;;;0.30;0.30;;;1.60;99.90;;;;;;4977040;28;20187;-66
2024/02/25 05:39:08;;;;;;;0.50;0.50;;;1.50;99.90;;;;;;4978254;28;20187;-66
2024/02/25 05:41:34;;;;;;;0.40;0.40;;;1.50;99.90;;;;;;4978262;28;20226;-66
2024/02/25 05:44:00;;;;;;;0.40;0.40;;;1.50;99.90;;;;;;4978305;28;20535;-66
2024/02/25 05:46:25;;;;;;;0.40;0.40;;;1.50;99.90;;;;;;4977882;28;20203;-66
2024/02/25 05:48:51;;;;;;;0.40;0.40;;;1.50;99.90;;;;;;4978002;28;20202;-65
2024/02/25 05:51:16;;;;;;;0.40;0.40;;;1.60;99.90;;;;;;4978177;28;20272;-66
2024/02/25 05:53:42;;;;;;;0.40;0.40;;;1.60;99.90;;;;;;4978062;28;20255;-66
2024/02/25 05:56:08;;;;;;;0.43;0.43;;;1.60;99.90;;;;;;4977770;28;20207;-67
2024/02/25 05:58:35;;;;;;;0.40;0.40;;;1.70;99.90;;;;;;4978020;28;20183;-65
2024/02/25 06:01:01;;;;;;;1.20;1.20;;;1.70;99.90;;;;;;4960604;28;20511;-66
2024/02/25 06:03:26;;;;;;;0.47;0.47;;;1.80;99.90;;;;;;4977976;28;20171;-66
2024/02/25 06:05:57;;;;;;;0.40;0.40;;;1.80;99.90;;;;;;4977478;28;20246;-66
2024/02/25 06:08:23;;;;;;;0.40;0.40;;;1.80;99.90;;;;;;4960476;28;20187;-66
2024/02/25 06:10:52;;;;;;;0.40;0.40;;;1.80;99.90;;;;;;4977748;28;20223;-65
2024/02/25 06:13:18;;;;;;;0.40;0.40;;;1.80;99.90;;;;;;4977775;28;20165;-65
2024/02/25 06:15:43;;;;;;;0.40;0.40;;;1.80;99.90;;;;;;4977351;28;20223;-66
2024/02/25 06:18:10;;;;;;;0.40;0.40;;;1.70;99.90;;;;;;4977704;28;20565;-65
2024/02/25 06:20:35;;;;;;;0.40;0.40;;;1.70;99.90;;;;;;4977708;28;20196;-66
2024/02/25 06:23:01;;;;;;;0.50;0.50;;;1.70;99.90;;;;;;4977482;28;20210;-66
2024/02/25 06:25:27;;;;;;;0.40;0.40;;;1.70;99.90;;;;;;4977143;28;20196;-64
2024/02/25 06:27:52;;;;;;;0.50;0.50;;;1.70;99.90;;;;;;4960212;28;20204;-65
2024/02/25 06:30:18;;;;;;;0.40;0.40;;;1.80;99.90;;;;;;4977656;28;20345;-65
2024/02/25 06:32:44;;;;;;;0.40;0.40;;;1.80;99.90;;;;;;4977304;28;20179;-66
2024/02/25 06:35:09;;;;;;;0.40;0.40;;;1.90;99.90;;;;;;4977318;28;20638;-66
2024/02/25 06:37:35;;;;;;;0.40;0.40;;;2.10;99.90;;;;;;4977201;28;20168;-65
2024/02/25 06:40:02;;;;;;;0.37;0.37;;;2.40;99.90;;;;;;4977235;28;20194;-66
2024/02/25 06:42:28;;;;;;;0.30;0.30;;;2.70;99.90;;;;;;4977285;28;20165;-67
2024/02/25 06:44:54;;;;;;;0.40;0.40;;;3.10;99.90;;;;;;4976617;28;20669;-65
2024/02/25 06:47:19;;;;;;;0.30;0.30;;;3.50;99.90;;;;;;4977103;28;20187;-66
2024/02/25 06:49:45;;;;;;;0.30;0.30;;;4.00;99.90;;;;;;4976911;28;20248;-66
2024/02/25 06:52:10;;;;;;;0.40;0.40;;;4.50;99.90;;;;;;4959555;28;20176;-65
2024/02/25 06:54:36;;;;;;;0.40;0.40;;;4.80;99.90;;;;;;4976659;28;20645;-66
2024/02/25 06:57:02;;;;;;;0.30;0.30;;;5.20;99.90;;;;;;4977001;28;20195;-66
2024/02/25 06:59:28;;;;;;;0.30;0.30;;;5.50;99.90;;;;;;4976761;28;20168;-65
2024/02/25 07:01:54;;;;;;;0.30;0.30;;;5.90;99.90;;;;;;4976639;28;20235;-65
2024/02/25 07:04:19;;;;;;;0.30;0.30;;;6.30;99.90;;;;;;4976980;28;20180;-65
2024/02/25 07:06:45;;;;;;;0.53;0.53;;;6.80;99.90;;;;;;4958591;28;20467;-66
2024/02/25 07:09:11;;;;;;;0.30;0.30;;;7.20;99.90;;;;;;4976659;28;20207;-66
2024/02/25 07:11:37;;;;;;;0.30;0.30;;;7.60;99.90;;;;;;4976412;28;20176;-67
2024/02/25 07:14:02;;;;;;;0.30;0.30;;;7.70;99.90;;;;;;4976604;28;20200;-67
2024/02/25 07:16:28;;;;;;;0.30;0.30;;;8.00;99.90;;;;;;4975937;28;20197;-68
2024/02/25 07:18:53;;;;;;;0.30;0.30;;;8.20;99.90;;;;;;4976282;28;20181;-66
2024/02/25 07:21:19;;;;;;;0.30;0.30;;;8.30;99.90;;;;;;4976428;28;20206;-66
2024/02/25 07:23:45;;;;;;;0.30;0.30;;;8.60;99.90;;;;;;4976484;28;20183;-66
2024/02/25 07:26:12;;;;;;;0.30;0.30;;;9.00;99.90;;;;;;4975692;28;20219;-66
2024/02/25 07:28:42;;;;;;;0.30;0.30;;;9.00;99.90;;;;;;4958543;28;20592;-67
2024/02/25 07:31:17;;;;;;;0.30;0.30;;;9.10;99.90;;;;;;4975948;28;20416;-66
2024/02/25 07:33:44;;;;;;;0.40;0.40;;;9.20;99.90;;;;;;4976101;28;20414;-66
2024/02/25 07:36:14;;;;;;;0.30;0.30;;;9.30;99.90;;;;;;4975730;28;20824;-66
2024/02/25 07:38:41;;;;;;;0.43;0.40;;;9.20;99.90;;;;;;4976013;28;20837;-66
2024/02/25 07:41:07;;;;;;;0.30;0.30;;;9.10;99.90;;;;;;4976167;28;20420;-66
2024/02/25 07:43:34;;;;;;;0.40;0.40;;;8.80;99.90;;;;;;4976026;28;20529;-67
2024/02/25 07:46:00;;;;;;;0.30;0.30;;;8.50;99.90;;;;;;4975450;28;20480;-66
2024/02/25 07:48:25;;;;;;;0.40;0.40;;;8.30;99.90;;;;;;4975947;28;20401;-65
2024/02/25 07:50:51;;;;;;;0.40;0.40;;;8.10;99.90;;;;;;4975962;28;20465;-66
2024/02/25 07:53:17;;;;;;;0.30;0.30;;;7.80;99.90;;;;;;4975749;28;20177;-66
2024/02/25 07:55:42;;;;;;;0.30;0.30;;;7.70;99.90;;;;;;4974802;28;20337;-66
2024/02/25 07:58:08;;;;;;;0.40;0.40;;;7.80;99.90;;;;;;4975786;28;20574;-66
2024/02/25 08:00:34;;;;;;;0.30;0.30;;;7.80;99.90;;;;;;4975688;28;20282;-67
2024/02/25 08:03:00;;;;;;;0.50;0.50;;;7.90;99.90;;;;;;4958213;28;20596;-69
2024/02/25 08:05:26;;;;;;;0.30;0.30;;;8.00;99.90;;;;;;4958124;28;20193;-68
2024/02/25 08:07:53;;;;;;;0.30;0.30;;;8.00;99.90;;;;;;4975518;28;20188;-69
2024/02/25 08:10:19;;;;;;;0.30;0.30;;;8.00;99.90;;;;;;4958131;28;20636;-65
2024/02/25 08:12:46;;;;;;;0.35;0.35;;;8.00;99.90;;;;;;4975430;28;20417;-70
2024/02/25 08:15:12;;;;;;;0.30;0.30;;;8.10;99.90;;;;;;4975179;28;20212;-66
2024/02/25 08:17:38;;;;;;;0.30;0.30;;;8.30;99.90;;;;;;4975517;28;20185;-68
2024/02/25 08:20:04;;;;;;;0.30;0.30;;;8.30;99.90;;;;;;4975346;28;20383;-66
2024/02/25 08:22:32;;;;;;;0.30;0.30;;;8.30;99.90;;;;;;4974914;28;20417;-66
2024/02/25 08:24:59;;;;;;;0.30;0.30;;;8.30;99.90;;;;;;4973892;28;20525;-66
2024/02/25 08:27:28;;;;;;;0.30;0.30;;;8.40;99.90;;;;;;4957175;28;20205;-67
2024/02/25 08:29:56;;;;;;;0.40;0.40;;;8.40;99.90;;;;;;4975017;28;20443;-67
2024/02/25 08:32:24;;;;;;;0.40;0.40;;;8.30;99.90;;;;;;4975537;28;20192;-67
2024/02/25 08:34:55;;;;;;;0.30;0.30;;;8.10;99.90;;;;;;4974520;28;20204;-68
2024/02/25 08:37:22;;;;;;;0.30;0.30;;;8.00;99.90;;;;;;4974858;28;20605;-66
2024/02/25 08:39:49;;;;;;;0.30;0.30;;;8.10;99.90;;;;;;4974737;28;20177;-65
2024/02/25 08:42:15;;;;;;;0.30;0.30;;;8.30;99.90;;;;;;4974606;28;20180;-66
2024/02/25 08:44:40;;;;;;;0.30;0.30;;;8.40;99.90;;;;;;4973621;28;20175;-68
2024/02/25 08:47:07;;;;;;;0.30;0.30;;;8.50;99.90;;;;;;4974577;28;20201;-66
2024/02/25 08:49:32;;;;;;;0.40;0.40;;;8.70;99.90;;;;;;4974265;28;20256;-71
2024/02/25 08:51:58;;;;;;;0.30;0.30;;;8.90;99.90;;;;;;4974592;28;20224;-68
2024/02/25 08:54:23;;;;;;;0.30;0.30;;;9.10;99.90;;;;;;4974836;28;20505;-72
2024/02/25 08:56:49;;;;;;;0.30;0.30;;;9.30;99.90;;;;;;4974733;28;20190;-66
2024/02/25 08:59:14;;;;;;;0.30;0.30;;;9.40;99.90;;;;;;4957408;28;20182;-64
2024/02/25 09:01:40;;;;;;;0.40;0.40;;;9.50;99.80;;;;;;4984542;28;20189;-63
2024/02/25 09:04:05;;;;;;;0.30;0.30;;;9.60;99.70;;;;;;4986127;28;20208;-64
2024/02/25 09:06:31;;;;;;;0.30;0.30;;;9.90;99.70;;;;;;4976159;28;20210;-65
2024/02/25 09:08:57;;;;;;;0.30;0.30;;;10.20;98.10;;;;;;4976569;28;20225;-66
2024/02/25 09:11:24;;;;;;;0.30;0.30;;;10.30;97.40;;;;;;4974185;28;20442;-66
2024/02/25 09:13:51;;;;;;;0.30;0.20;;;10.50;98.00;;;;;;4956731;28;20825;-66
2024/02/25 09:16:16;;;;;;;0.30;0.30;;;10.70;97.00;;;;;;4973741;28;20243;-67
2024/02/25 09:18:42;;;;;;;0.30;0.20;;;10.90;96.40;;;;;;4974135;28;20394;-63
2024/02/25 09:21:08;;;;;;;0.30;0.30;;;11.00;96.40;;;;;;4974005;28;20260;-66
2024/02/25 09:23:34;;;;;;;0.30;0.30;;;11.10;95.90;;;;;;4974413;28;20172;-67
2024/02/25 09:25:59;;;;;;;0.30;0.30;;;11.20;95.50;;;;;;4973840;28;20959;-68
2024/02/25 09:28:26;;;;;;;0.30;0.30;;;11.30;95.60;;;;;;4974359;28;20172;-65
2024/02/25 09:30:52;;;;;;;0.30;0.30;;;11.30;95.50;;;;;;4974262;28;20207;-66
2024/02/25 09:33:19;;;;;;;0.30;0.30;;;11.40;95.30;;;;;;4974918;28;20699;-65
2024/02/25 09:35:45;;;;;;;0.30;0.30;;;11.70;96.00;;;;;;4973927;28;20274;-66
2024/02/25 09:38:11;;;;;;;0.30;0.30;;;12.00;95.50;;;;;;4972168;28;20518;-66
2024/02/25 09:40:38;;;;;;;0.30;0.30;;;12.20;94.10;;;;;;4954840;29;20266;-68
2024/02/25 09:43:07;;;;;;;0.30;0.30;;;12.40;94.20;;;;;;4954999;29;20420;-66
2024/02/25 09:45:34;;;;;;;0.30;0.30;;;12.60;93.20;;;;;;4954494;29;20957;-64
2024/02/25 09:48:00;;;;;;;0.30;0.30;;;12.60;92.80;;;;;;4954948;29;20738;-67
2024/02/25 09:50:27;;;;;;;0.30;0.20;;;12.60;93.10;;;;;;4955830;28;20469;-66
2024/02/25 09:52:55;;;;;;;0.30;0.30;;;12.80;93.10;;;;;;4973911;28;20388;-69
2024/02/25 09:55:20;;;;;;;0.30;0.30;;;13.20;91.80;;;;;;4973678;28;20408;-66
2024/02/25 09:57:50;;;;;;;0.33;0.33;;;13.40;91.20;;;;;;4974013;28;20484;-67
2024/02/25 10:00:16;;;;;;;0.30;0.20;;;13.50;91.20;;;;;;4974059;28;20196;-66
2024/02/25 10:02:43;;;;;;;0.30;0.30;;;13.50;91.00;;;;;;4974127;28;20386;-68
2024/02/25 10:05:14;;;;;;;0.30;0.30;;;13.40;90.30;;;;;;4972045;28;20400;-68
2024/02/25 10:07:40;;;;;;;0.30;0.30;;;13.20;90.50;;;;;;4973777;28;20431;-68
2024/02/25 10:10:06;;;;;;;0.30;0.30;;;13.30;90.70;;;;;;4973949;28;20996;-66
2024/02/25 10:12:32;;;;;;;0.30;0.30;;;13.50;90.80;;;;;;4972508;28;20182;-71
2024/02/25 10:14:58;;;;;;;0.30;0.30;;;13.80;90.50;;;;;;4968843;28;20412;-66
2024/02/25 10:17:24;;;;;;;0.30;0.30;;;14.40;90.40;;;;;;4957412;28;20468;-69
2024/02/25 10:19:56;;;;;;;0.30;0.30;;;15.00;88.90;;;;;;4959558;28;20518;-60
2024/02/25 10:22:24;;;;;;;0.30;0.20;;;15.90;87.80;;;;;;4977609;28;20496;-65
2024/02/25 10:24:51;;;;;;;0.30;0.30;;;16.90;84.60;;;;;;4977024;28;20903;-69
2024/02/25 10:27:19;;;;;;;0.30;0.30;;;17.70;81.40;;;;;;4977221;28;20428;-66
2024/02/25 10:30:07;;;;;;;0.30;0.30;;;18.50;79.90;;;;;;4959822;28;20817;-67
2024/02/25 10:32:40;;;;;;;0.30;0.20;;;19.10;76.30;;;;;;4969514;28;20394;-66
2024/02/25 10:35:09;;;;;;;0.30;0.20;;;19.50;74.40;;;;;;4961098;28;20878;-62
2024/02/25 10:37:35;;;;;;;0.30;0.30;;;19.80;72.70;;;;;;4994302;28;20867;-68
2024/02/25 10:40:07;;;;;;;0.30;0.30;;;19.80;71.60;;;;;;4974727;28;20899;-68
2024/02/25 10:42:35;;;;;;;0.30;0.20;;;19.90;71.50;;;;;;4959482;28;20416;-67
2024/02/25 10:45:01;;;;;;;0.30;0.20;;;20.10;70.90;;;;;;4958223;28;20951;-68
2024/02/25 10:47:28;;;;;;;0.30;0.20;;;20.10;68.50;;;;;;4976305;28;20426;-68
2024/02/25 10:49:55;;;;;;;0.33;0.33;;;20.00;69.50;;;;;;4976806;28;20462;-64
2024/02/25 10:52:21;;;;;;;0.30;0.30;;;20.10;69.80;;;;;;4959555;28;20465;-64
2024/02/25 10:54:49;;;;;;;0.30;0.20;;;20.10;68.20;;;;;;4976595;28;20777;-64
2024/02/25 10:57:17;;;;;;;0.30;0.20;;;20.00;67.50;;;;;;4976351;28;20457;-62
2024/02/25 10:59:46;;;;;;;0.30;0.27;;;19.70;66.30;;;;;;4976114;28;20416;-66
2024/02/25 11:02:13;;;;;;;0.40;0.40;;;19.30;64.50;;;;;;4976162;28;20800;-62
2024/02/25 11:04:38;;;;;;;0.30;0.20;;;18.90;68.40;;;;;;4976272;28;20412;-65
2024/02/25 11:07:05;;;;;;;0.30;0.30;;;18.90;69.20;;;;;;4975984;28;20456;-61
2024/02/25 11:09:32;;;;;;;0.30;0.20;;;19.00;68.20;;;;;;4976540;28;20192;-67
2024/02/25 11:12:14;;;;;;;0.30;0.30;;;19.00;67.40;;;;;;4976212;28;20386;-64
2024/02/25 11:14:50;;;;;;;0.30;0.30;;;19.20;67.40;;;;;;4975577;28;20415;-66
2024/02/25 11:17:20;;;;;;;0.30;0.20;;;19.30;67.90;;;;;;4958448;28;20464;-64
2024/02/25 11:20:22;;;;;;;1.07;1.07;;;19.10;67.10;;;;;;4956788;29;20392;-65
2024/02/25 11:22:50;;;;;;;0.30;0.30;;;18.80;67.60;;;;;;4953000;29;20757;-65
2024/02/25 11:25:28;;;;;;;0.30;0.30;;;18.60;68.00;;;;;;4939078;29;20903;-63
2024/02/25 11:28:04;;;;;;;0.30;0.20;;;18.20;68.40;;;;;;4957023;29;20825;-65
2024/02/25 11:30:43;;;;;;;0.30;0.20;;;17.60;69.90;;;;;;4942668;28;20833;-63
2024/02/25 11:33:33;;;;;;;0.30;0.30;;;16.80;70.40;;;;;;4976189;28;20383;-66
2024/02/25 11:36:08;;;;;;;0.30;0.30;;;16.10;71.60;;;;;;4975561;28;20431;-66
2024/02/25 11:38:34;;;;;;;0.30;0.30;;;15.50;74.70;;;;;;4975658;28;20884;-64
2024/02/25 11:41:02;;;;;;;1.13;0.50;;;15.10;76.80;;;;;;4968347;28;20479;-62
2024/02/25 11:43:27;;;;;;;0.30;0.30;;;14.80;76.70;;;;;;4965444;28;20408;-68
2024/02/25 11:45:56;;;;;;;0.30;0.30;;;14.60;78.50;;;;;;4968472;28;20470;-64
2024/02/25 11:48:22;;;;;;;0.30;0.20;;;14.40;77.50;;;;;;4956604;29;20543;-63
2024/02/25 11:50:51;;;;;;;0.30;0.30;;;14.20;75.70;;;;;;4968469;28;20449;-62
2024/02/25 11:53:17;;;;;;;0.30;0.30;;;14.10;75.70;;;;;;4970825;28;20669;-64
2024/02/25 11:55:43;;;;;;;0.30;0.30;;;14.00;76.70;;;;;;4967439;28;20414;-62
2024/02/25 11:58:10;;;;;;;0.30;0.30;;;14.10;76.00;;;;;;4975545;28;20451;-64
2024/02/25 12:00:37;;;;;;;0.30;0.30;;;14.10;74.60;;;;;;4979503;28;20178;-63
2024/02/25 12:03:04;;;;;;;0.30;0.20;;;14.20;74.50;;;;;;4958148;28;20425;-63
2024/02/25 12:05:31;;;;;;;0.40;0.40;;;14.20;75.10;;;;;;4974994;28;20499;-63
2024/02/25 12:07:58;;;;;;;0.30;0.20;;;14.10;73.00;;;;;;4974872;28;20436;-64
2024/02/25 12:10:25;;;;;;;0.30;0.30;;;14.10;72.40;;;;;;4971683;28;20435;-63
2024/02/25 12:12:52;;;;;;;0.30;0.20;;;14.00;73.30;;;;;;4974563;28;20472;-67
2024/02/25 12:15:19;;;;;;;0.40;0.40;;;13.90;72.00;;;;;;4974659;28;20388;-63
2024/02/25 12:17:47;;;;;;;0.30;0.27;;;13.90;72.50;;;;;;4975495;28;20395;-63
2024/02/25 12:20:13;;;;;;;0.30;0.30;;;13.90;72.10;;;;;;4974800;28;20416;-65
2024/02/25 12:22:40;;;;;;;0.30;0.27;;;13.90;73.00;;;;;;4973964;28;20416;-63
2024/02/25 12:25:07;;;;;;;0.30;0.30;;;13.90;72.00;;;;;;4972631;28;20383;-63
2024/02/25 12:27:33;;;;;;;0.40;0.40;;;13.90;72.70;;;;;;4973314;28;20396;-64
2024/02/25 12:30:00;;;;;;;0.30;0.30;;;13.80;71.60;;;;;;4972137;28;20431;-65
2024/02/25 12:32:26;;;;;;;0.30;0.30;;;13.80;72.80;;;;;;4972040;28;20394;-66
2024/02/25 12:34:52;;;;;;;0.30;0.30;;;13.90;72.20;;;;;;4971768;28;20388;-65
2024/02/25 12:37:24;;;;;;;0.30;0.30;;;14.00;73.50;;;;;;4972201;28;20529;-64
2024/02/25 12:39:49;;;;;;;0.30;0.20;;;14.20;74.20;;;;;;4957741;28;20433;-65
2024/02/25 12:42:18;;;;;;;0.30;0.30;;;14.40;73.40;;;;;;4953608;28;20422;-65
2024/02/25 12:44:43;;;;;;;0.30;0.30;;;14.40;71.70;;;;;;4955034;29;20780;-64
2024/02/25 12:47:13;;;;;;;0.30;0.30;;;14.40;73.20;;;;;;4955293;29;20429;-61
2024/02/25 12:49:39;;;;;;;0.30;0.30;;;14.40;73.00;;;;;;4956123;29;20547;-63
2024/02/25 12:52:05;;;;;;;0.30;0.27;;;14.50;72.70;;;;;;4955259;29;20396;-64
2024/02/25 12:54:30;;;;;;;0.57;0.47;;;14.70;74.00;;;;;;4954922;29;20210;-63
2024/02/25 12:56:58;;;;;;;0.30;0.30;;;14.90;72.70;;;;;;4955692;29;20205;-62
2024/02/25 12:59:24;;;;;;;0.30;0.30;;;15.10;71.00;;;;;;4955577;29;20178;-65
2024/02/25 13:01:50;;;;;;;0.30;0.30;;;15.20;71.10;;;;;;4955497;29;20900;-64
2024/02/25 13:04:16;;;;;;;0.30;0.30;;;15.20;70.60;;;;;;4955276;29;21032;-63
2024/02/25 13:06:42;;;;;;;0.30;0.30;;;15.30;70.50;;;;;;4954655;29;20256;-64
2024/02/25 13:09:09;;;;;;;0.30;0.30;;;15.30;70.40;;;;;;4955213;29;20552;-64
2024/02/25 13:11:35;;;;;;;0.30;0.30;;;15.20;70.50;;;;;;4955263;29;20172;-63
2024/02/25 13:14:02;;;;;;;0.30;0.30;;;15.00;70.60;;;;;;4955302;29;20516;-65
2024/02/25 13:16:28;;;;;;;0.30;0.30;;;14.90;70.50;;;;;;4937759;29;20423;-65
2024/02/25 13:18:53;;;;;;;0.30;0.30;;;14.60;69.30;;;;;;4955122;29;20413;-63
2024/02/25 13:21:21;;;;;;;0.30;0.30;;;14.20;71.00;;;;;;4938143;29;20205;-64
2024/02/25 13:23:46;;;;;;;0.30;0.30;;;14.00;71.70;;;;;;4954947;29;20199;-65
2024/02/25 13:26:12;;;;;;;0.30;0.30;;;13.90;72.70;;;;;;4954612;29;20460;-63
2024/02/25 13:28:38;;;;;;;0.30;0.30;;;13.80;74.00;;;;;;4955232;29;20224;-63
2024/02/25 13:31:04;;;;;;;0.30;0.30;;;13.80;74.60;;;;;;4955151;29;20267;-63
2024/02/25 13:33:30;;;;;;;0.30;0.30;;;13.70;74.50;;;;;;4955059;29;20173;-63
2024/02/25 13:35:59;;;;;;;0.30;0.30;;;13.70;74.20;;;;;;4954363;29;20942;-64
2024/02/25 13:38:25;;;;;;;0.30;0.30;;;13.70;74.20;;;;;;4958888;28;20382;-63
2024/02/25 13:40:52;;;;;;;0.30;0.30;;;13.60;75.00;;;;;;4974428;28;20759;-64
2024/02/25 13:43:18;;;;;;;0.30;0.30;;;13.70;74.40;;;;;;4974279;28;20194;-63
2024/02/25 13:45:52;;;;;;;0.30;0.30;;;13.50;72.90;;;;;;4956253;28;20456;-62
2024/02/25 13:48:20;;;;;;;0.30;0.30;;;13.40;72.00;;;;;;4974274;28;20437;-63
2024/02/25 13:50:46;;;;;;;0.30;0.30;;;13.30;71.10;;;;;;4973976;28;20776;-63
2024/02/25 13:53:12;;;;;;;0.30;0.30;;;13.20;73.70;;;;;;4974062;28;20475;-64
2024/02/25 13:55:39;;;;;;;0.30;0.30;;;13.20;75.00;;;;;;4976495;28;20325;-64
2024/02/25 13:58:05;;;;;;;0.30;0.30;;;13.30;73.20;;;;;;4978070;28;20441;-63
2024/02/25 14:00:31;;;;;;;0.30;0.30;;;13.20;73.00;;;;;;4978010;28;20410;-64
2024/02/25 14:02:56;;;;;;;0.30;0.30;;;13.20;73.60;;;;;;4977876;28;20417;-65
2024/02/25 14:05:24;;;;;;;0.30;0.30;;;13.10;74.00;;;;;;4977434;28;20183;-63
2024/02/25 14:07:51;;;;;;;0.30;0.30;;;13.20;74.30;;;;;;4977849;28;20187;-65
2024/02/25 14:10:17;;;;;;;0.40;0.30;;;13.20;73.30;;;;;;4977652;28;20983;-64
2024/02/25 14:12:43;;;;;;;0.30;0.20;;;13.10;73.80;;;;;;4977737;28;20459;-64
2024/02/25 14:15:09;;;;;;;5.33;0.83;;;13.00;74.50;;;;;;4977143;28;20419;-64
2024/02/25 14:17:36;;;;;;;0.37;0.37;;;13.00;75.10;;;;;;4977554;28;20930;-63
2024/02/25 14:20:09;;;;;;;0.30;0.30;;;13.00;74.60;;;;;;4977480;28;20175;-64
2024/02/25 14:22:37;;;;;;;0.30;0.30;;;13.00;74.30;;;;;;4960074;28;20465;-63
2024/02/25 14:25:05;;;;;;;0.33;0.33;;;12.90;74.50;;;;;;4977147;28;20414;-62
2024/02/25 14:27:31;;;;;;;0.30;0.30;;;12.80;75.60;;;;;;4977262;28;20983;-64
2024/02/25 14:29:57;;;;;;;0.37;0.37;;;12.80;76.10;;;;;;4977313;28;20421;-64
2024/02/25 14:32:23;;;;;;;0.30;0.30;;;12.90;75.40;;;;;;4977155;28;20408;-63
2024/02/25 14:34:48;;;;;;;0.57;0.57;;;12.80;75.30;;;;;;4977132;28;20564;-63
2024/02/25 14:37:15;;;;;;;0.40;0.40;;;12.80;75.90;;;;;;4977023;28;20195;-63
2024/02/25 14:39:43;;;;;;;0.30;0.30;;;12.80;75.70;;;;;;4977146;28;20175;-64
2024/02/25 14:42:09;;;;;;;0.30;0.23;;;12.80;75.30;;;;;;4976984;28;20431;-64
2024/02/25 14:44:36;;;;;;;0.30;0.30;;;12.90;74.10;;;;;;4959311;28;20433;-64
2024/02/25 14:47:02;;;;;;;0.30;0.30;;;12.90;74.00;;;;;;4976698;28;20460;-63
2024/02/25 14:49:28;;;;;;;0.30;0.30;;;12.90;73.30;;;;;;4959722;28;20535;-64
2024/02/25 14:51:54;;;;;;;0.30;0.30;;;12.90;73.60;;;;;;4976859;28;20411;-63
2024/02/25 14:54:20;;;;;;;0.30;0.30;;;12.80;73.80;;;;;;4976717;28;20405;-65
2024/02/25 14:56:45;;;;;;;0.30;0.30;;;12.90;72.80;;;;;;4976254;28;20248;-64
2024/02/25 14:59:11;;;;;;;0.30;0.30;;;12.90;72.20;;;;;;4976685;28;20178;-64
2024/02/25 15:01:37;;;;;;;0.30;0.30;;;12.80;72.10;;;;;;4976970;28;20249;-64
2024/02/25 15:04:03;;;;;;;0.30;0.30;;;12.70;71.60;;;;;;4976738;28;20766;-63
2024/02/25 15:06:29;;;;;;;1.60;0.50;;;12.70;73.70;;;;;;4975868;28;20230;-63
2024/02/25 15:08:54;;;;;;;0.30;0.30;;;12.70;71.90;;;;;;4959227;28;20430;-63
2024/02/25 15:11:21;;;;;;;0.30;0.30;;;12.70;72.60;;;;;;4976641;28;20418;-63
2024/02/25 15:13:47;;;;;;;0.30;0.30;;;12.70;73.40;;;;;;4958953;28;20180;-62
2024/02/25 15:16:15;;;;;;;0.30;0.30;;;12.70;73.40;;;;;;4975902;28;20430;-63
2024/02/25 15:18:43;;;;;;;0.30;0.30;;;12.70;74.90;;;;;;4976344;28;20261;-63
2024/02/25 15:21:09;;;;;;;0.30;0.30;;;12.70;74.90;;;;;;4958860;28;20528;-65
2024/02/25 15:23:34;;;;;;;0.30;0.30;;;12.60;74.20;;;;;;4976328;28;20461;-63
2024/02/25 15:26:00;;;;;;;0.30;0.30;;;12.70;74.70;;;;;;4975865;28;20928;-65
2024/02/25 15:28:25;;;;;;;0.30;0.30;;;12.70;74.50;;;;;;4958647;28;20264;-62
2024/02/25 15:30:51;;;;;;;0.30;0.30;;;12.70;74.70;;;;;;4976057;28;20214;-62
2024/02/25 15:33:16;;;;;;;0.30;0.30;;;12.60;75.80;;;;;;4976040;28;20589;-62
2024/02/25 15:35:42;;;;;;;0.30;0.20;;;12.60;74.70;;;;;;4975734;28;20290;-62
2024/02/25 15:38:09;;;;;;;0.30;0.30;;;12.50;74.40;;;;;;4976012;28;20203;-62
2024/02/25 15:40:39;;;;;;;0.40;0.40;;;12.50;75.70;;;;;;4976619;28;20435;-63
2024/02/25 15:43:05;;;;;;;0.30;0.30;;;12.50;75.20;;;;;;4976092;28;20414;-64
2024/02/25 15:45:31;;;;;;;0.30;0.20;;;12.40;74.90;;;;;;4975387;28;20873;-64
2024/02/25 15:47:57;;;;;;;0.30;0.30;;;12.40;74.10;;;;;;4975800;28;20413;-62
2024/02/25 15:50:23;;;;;;;0.30;0.30;;;12.40;73.30;;;;;;4975584;28;20211;-63
2024/02/25 15:52:49;;;;;;;0.30;0.30;;;12.40;73.60;;;;;;4975633;28;20407;-63
2024/02/25 15:55:14;;;;;;;0.30;0.30;;;12.40;73.80;;;;;;4974962;28;20231;-64
2024/02/25 15:57:40;;;;;;;0.30;0.30;;;12.50;74.40;;;;;;4975565;28;20249;-64
2024/02/25 16:00:09;;;;;;;0.30;0.30;;;12.40;75.00;;;;;;4975490;28;20529;-63
2024/02/25 16:02:35;;;;;;;0.30;0.30;;;12.40;75.40;;;;;;4975758;28;20183;-63
2024/02/25 16:05:01;;;;;;;0.30;0.30;;;12.30;76.50;;;;;;4975215;28;20428;-63
2024/02/25 16:07:27;;;;;;;0.30;0.30;;;12.30;77.30;;;;;;4975200;28;20225;-64
2024/02/25 16:09:53;;;;;;;0.30;0.20;;;12.20;78.30;;;;;;4975378;28;20467;-64
2024/02/25 16:12:18;;;;;;;0.30;0.30;;;12.20;78.30;;;;;;4975768;28;20390;-63
2024/02/25 16:14:45;;;;;;;0.30;0.30;;;12.10;78.30;;;;;;4974875;28;20214;-63
2024/02/25 16:17:13;;;;;;;0.30;0.30;;;12.10;78.40;;;;;;4974358;28;20211;-61
2024/02/25 16:19:41;;;;;;;0.30;0.30;;;12.00;78.50;;;;;;4975233;28;20408;-64
2024/02/25 16:22:06;;;;;;;0.30;0.30;;;11.90;79.10;;;;;;4957830;28;20999;-64
2024/02/25 16:24:32;;;;;;;0.30;0.30;;;11.80;79.50;;;;;;4974610;28;20387;-63
2024/02/25 16:26:58;;;;;;;0.30;0.30;;;11.70;80.20;;;;;;4974857;28;20716;-63
2024/02/25 16:29:23;;;;;;;0.30;0.30;;;11.60;81.00;;;;;;4974922;28;20703;-64
2024/02/25 16:31:49;;;;;;;0.30;0.30;;;11.50;81.30;;;;;;4974764;28;20201;-63
2024/02/25 16:34:15;;;;;;;0.30;0.30;;;11.40;81.80;;;;;;4975127;28;20532;-65
2024/02/25 16:36:40;;;;;;;0.30;0.30;;;11.30;81.80;;;;;;4974710;28;20200;-64
2024/02/25 16:39:15;;;;;;;0.30;0.30;;;11.20;82.00;;;;;;4975457;28;20174;-64
2024/02/25 16:41:40;;;;;;;0.30;0.30;;;11.20;82.20;;;;;;4974904;28;20173;-63
2024/02/25 16:44:06;;;;;;;0.30;0.30;;;11.10;82.40;;;;;;4974852;28;20827;-63
2024/02/25 16:46:36;;;;;;;0.30;0.30;;;11.00;82.60;;;;;;4974308;28;20722;-62
2024/02/25 16:49:02;;;;;;;0.30;0.30;;;10.90;83.10;;;;;;4974493;28;20177;-64
2024/02/25 16:51:27;;;;;;;0.30;0.30;;;10.80;83.80;;;;;;4957335;28;20746;-63
2024/02/25 16:53:53;;;;;;;0.30;0.30;;;10.70;84.00;;;;;;4974638;28;20443;-62
2024/02/25 16:56:22;;;;;;;0.40;0.40;;;10.70;84.40;;;;;;4956774;28;20195;-64
2024/02/25 16:58:48;;;;;;;0.30;0.30;;;10.50;84.80;;;;;;4974773;28;20248;-63
2024/02/25 17:01:13;;;;;;;0.30;0.30;;;10.50;85.20;;;;;;4974530;28;20425;-64
2024/02/25 17:03:40;;;;;;;0.43;0.40;;;10.40;85.50;;;;;;4957207;28;20184;-64
2024/02/25 17:06:06;;;;;;;0.30;0.30;;;10.30;85.70;;;;;;4973932;28;20670;-63
2024/02/25 17:08:32;;;;;;;0.30;0.30;;;10.20;86.30;;;;;;4974346;28;20196;-63
2024/02/25 17:10:58;;;;;;;0.30;0.30;;;10.10;87.00;;;;;;4974444;28;20299;-64
2024/02/25 17:13:24;;;;;;;0.30;0.30;;;10.00;87.70;;;;;;4974615;28;20643;-63
2024/02/25 17:15:49;;;;;;;0.30;0.30;;;9.90;89.80;;;;;;4974048;28;20196;-64
2024/02/25 17:18:17;;;;;;;0.30;0.30;;;9.80;90.10;;;;;;4974141;28;20176;-63
2024/02/25 17:20:42;;;;;;;0.30;0.30;;;9.80;90.20;;;;;;4974388;28;20180;-63
2024/02/25 17:23:08;;;;;;;0.30;0.30;;;9.80;90.30;;;;;;4974195;28;20662;-64
2024/02/25 17:25:34;;;;;;;0.30;0.30;;;9.70;90.70;;;;;;4973804;28;20191;-62
2024/02/25 17:28:02;;;;;;;0.30;0.30;;;9.70;90.30;;;;;;4973773;28;20180;-63
2024/02/25 17:30:29;;;;;;;0.30;0.30;;;9.60;90.20;;;;;;4956780;28;20211;-62
2024/02/25 17:32:55;;;;;;;0.30;0.30;;;9.60;90.20;;;;;;4956787;28;20650;-63
2024/02/25 17:35:21;;;;;;;0.38;0.38;;;9.60;90.30;;;;;;4971189;28;20542;-66
2024/02/25 17:37:47;;;;;;;0.40;0.40;;;9.60;90.30;;;;;;4973127;28;20255;-65
2024/02/25 17:40:12;;;;;;;0.38;0.38;;;9.60;90.40;;;;;;4956457;28;20176;-63
2024/02/25 17:42:38;;;;;;;0.50;0.50;;;9.60;90.60;;;;;;4964930;28;20704;-65
2024/02/25 17:45:05;;;;;;;0.30;0.30;;;9.50;90.80;;;;;;4982315;28;20174;-64
2024/02/25 17:47:31;;;;;;;0.30;0.30;;;9.40;90.70;;;;;;4973587;28;20474;-63
2024/02/25 17:49:56;;;;;;;0.30;0.30;;;9.40;90.80;;;;;;4973430;28;20210;-65
2024/02/25 17:52:24;;;;;;;0.40;0.40;;;9.30;90.80;;;;;;4974113;28;20173;-66
2024/02/25 17:54:50;;;;;;;0.40;0.40;;;9.30;90.80;;;;;;4973056;28;20184;-67